• Join FlightAware (Why Join?)
  • Login
  • US Flag 
01:09AM EST


 

Airport Tracker/Info


-or-


 

Live Flight TrackerFlight Track Log ✈ N21234 ✈ 16-Jul-2013 ✈ 2K4 - KHQZ

Flight Track Log - Related Links

Times and Time Zones

All times are in EDT time to prevent confusion due to time zone crossing. See the N21234 flight status page for this flight to view local times or setup timezone preferences in your user account.

Time Position Orientation Groundspeed Altitude Reporting Facility
EDT Latitude Longitude Course Direction KTS MPH feet Rate Location/Type
05:03PM 34.8750 -99.5319 175° South 121 139 2,000  Level Fort Worth Center
05:04PM 34.8461 -99.5286 175° South 116 133 3,000 960 Climbing Fort Worth Center
05:05PM 34.8147 -99.5253 175° South 108 124 4,000 900 Climbing Fort Worth Center
05:06PM 34.7897 -99.5197 170° South 159 183 4,800 960 Climbing Fort Worth Center
05:07PM 34.7586 -99.5189 179° South 133 153 5,900 1,020 Climbing Fort Worth Center
05:08PM 34.7253 -99.5131 172° South 127 146 6,900 900 Climbing Fort Worth Center
05:09PM 34.6961 -99.5072 171° South 122 140 7,700 900 Climbing Fort Worth Center
05:10PM 34.6608 -99.5014 172° South 122 140 8,700 600 Climbing Fort Worth Center
05:11PM 34.6211 -99.4978 176° South 132 152 8,900 60 Climbing Fort Worth Center
05:12PM 34.5753 -99.4942 176° South 152 175 8,900 240 Level Fort Worth Center
05:13PM 34.5314 -99.4981 184° South 160 184 9,400 540 Climbing Fort Worth Center
05:14PM 34.4917 -99.5022 185° South 155 178 10,000 600 Climbing Fort Worth Center
05:15PM 34.4519 -99.5114 191° South 150 173 10,700 660 Climbing Fort Worth Center
05:16PM 34.4167 -99.5003 165° South 145 167 11,400 720 Climbing Fort Worth Center
05:17PM 34.3989 -99.4497 113° Southeast 127 146 12,200 780 Climbing Fort Worth Center
05:18PM 34.3764 -99.4064 122° Southeast 132 152 13,000 360 Climbing Fort Worth Center
05:19PM 34.3544 -99.3556 118° Southeast 153 176 13,000  Level Fort Worth Center
05:20PM 34.3258 -99.3044 124° Southeast 171 197 13,000  Level Fort Worth Center
05:21PM 34.3058 -99.2539 116° Southeast 184 212 13,000  Level Fort Worth Center
05:22PM 34.2814 -99.2031 120° Southeast 184 212 13,000  Level Fort Worth Center
05:23PM 34.2553 -99.1447 118° Southeast 184 212 13,000  Level Fort Worth Center
05:24PM 34.2289 -99.0939 122° Southeast 184 212 13,000  Level Fort Worth Center
05:25PM 34.2125 -99.0611 121° Southeast 181 208 13,000  Level Fort Worth Center
05:26PM 34.1903 -99.0153 120° Southeast 183 211 13,000  Level Fort Worth Center
05:26PM 34.1822 -98.9925 113° Southeast 184 212 13,000  Level Fort Worth Center
05:27PM 34.1556 -98.9344 119° Southeast 184 212 13,000  Level Fort Worth Center
05:28PM 34.1356 -98.8789 113° Southeast 184 212 13,000  Level Fort Worth Center
05:29PM 34.1236 -98.8183 103° East 184 212 13,000  Level Fort Worth Center
05:31PM 34.0908 -98.7553 122° Southeast 180 207 13,000  Level Fort Worth Center
05:31PM 34.0747 -98.7222 120° Southeast 178 205 13,000  Level Fort Worth Center
05:32PM 34.0500 -98.6694 119° Southeast 183 211 13,000  Level Fort Worth Center
05:33PM 34.0236 -98.6164 121° Southeast 183 211 13,000  Level Fort Worth Center
05:34PM 33.9969 -98.5683 124° Southeast 172 198 13,000  Level Fort Worth Center
05:35PM 33.9744 -98.5206 120° Southeast 172 198 13,000  Level Fort Worth Center
05:36PM 33.9478 -98.4625 119° Southeast 177 204 13,000  Level Fort Worth Center
05:37PM 33.9231 -98.4147 122° Southeast 172 198 13,000  Level Fort Worth Center
05:38PM 33.8983 -98.3619 119° Southeast 172 198 13,000  Level Fort Worth Center
05:39PM 33.8758 -98.3142 120° Southeast 172 198 13,000  Level Fort Worth Center
05:40PM 33.8492 -98.2639 123° Southeast 177 204 13,000  Level Fort Worth Center
05:41PM 33.8222 -98.2061 119° Southeast 182 209 13,000  Level Fort Worth Center
05:42PM 33.7956 -98.1558 123° Southeast 182 209 13,000  Level Fort Worth Center
05:43PM 33.7708 -98.1031 119° Southeast 182 209 13,000  Level Fort Worth Center
05:44PM 33.7481 -98.0581 121° Southeast 182 209 13,000 -300 Level Fort Worth Center
05:45PM 33.7211 -98.0053 122° Southeast 187 215 12,500 -540 Descending Fort Worth Center
05:46PM 33.6922 -97.9453 120° Southeast 194 223 12,000 -480 Descending Fort Worth Center
05:47PM 33.6633 -97.8900 122° Southeast 194 223 11,600 -420 Descending Fort Worth Center
05:48PM 33.6364 -97.8350 120° Southeast 194 223 11,200 -600 Descending Fort Worth Center
05:49PM 33.6092 -97.7825 122° Southeast 194 223 10,500 -660 Descending Fort Worth Center
05:50PM 33.5822 -97.7275 120° Southeast 187 215 9,900 -600 Descending Fort Worth Center
05:51PM 33.5492 -97.6653 123° Southeast 198 228 9,400 -660 Descending Fort Worth Center
05:52PM 33.5200 -97.6078 121° Southeast 198 228 8,600 -780 Descending Fort Worth Center
05:53PM 33.4950 -97.5581 121° Southeast 193 222 7,900 -840 Descending Fort Worth Center
05:54PM 33.4636 -97.4956 121° Southeast 188 216 7,000 -660 Descending Fort Worth Center
05:55PM 33.4344 -97.4533 130° Southeast 188 216 6,600 -420 Descending Fort Worth Center
05:56PM 33.4033 -97.4061 128° Southeast 176 203 6,200 -600 Descending Fort Worth Center
05:57PM 33.4011 -97.3489 93° East 170 196 5,400 -600 Descending Fort Worth Center
05:58PM 33.4011 -97.2842 90° East 175 201 5,000 -240 Descending Fort Worth Center
05:59PM 33.4011 -97.2317 90° East 175 201 5,000 -120 Level Fort Worth Center
06:00PM 33.4050 -97.1672 86° East 175 201 4,800 -360 Descending Fort Worth Center
06:01PM 33.3986 -97.1147 98° East 181 208 4,300 -600 Descending Fort Worth Center
06:02PM 33.3861 -97.0503 103° East 181 208 3,700 -540 Descending Fort Worth Center
06:03PM 33.3733 -96.9981 106° East 181 208 3,300 -360 Descending Fort Worth Center
06:04PM 33.3628 -96.9358 101° East 181 208 3,000 -180 Descending Fort Worth Center
06:05PM 33.3542 -96.8886 102° East 170 196 3,000 -60 Level Fort Worth Center
06:07PM 33.3167 -96.7833 113° Southeast 164 189 2,900 -60 Descending Dallas / Fort Worth TRACON
06:08PM 33.3000 -96.7500 121° Southeast 162 186 2,900  Level Dallas / Fort Worth TRACON
06:09PM 33.2667 -96.7000 129° Southeast 165 190 2,900  Level Dallas / Fort Worth TRACON
06:10PM 33.2333 -96.6500 129° Southeast 161 185 2,900  Level Dallas / Fort Worth TRACON
06:11PM 33.2167 -96.6167 121° Southeast 157 181 2,900  Level Dallas / Fort Worth TRACON
06:12PM 33.2000 -96.5667 112° Southeast 158 182 2,900  Level Dallas / Fort Worth TRACON
06:13PM 33.1667 -96.5333 140° Southeast 165 190 2,900  Level Dallas / Fort Worth TRACON
06:14PM 33.1167 -96.5167 164° South 162 186 2,900 -240 Level Dallas / Fort Worth TRACON
06:15PM 33.0667 -96.5167 180° South 179 206 2,400 -480 Descending Dallas / Fort Worth TRACON
06:16PM 33.0167 -96.5167 180° South 183 211 2,000 -300 Descending Dallas / Fort Worth TRACON
06:17PM 32.9667 -96.5167 180° South 157 181 1,900 -120 Descending Dallas / Fort Worth TRACON